Terminal Aerodrome Forecast
Issued by NWS St Louis, MO

Home | Current Version | Previous Version | Text Only | Print | Product List | Glossary On
Versions: 1 2 3 4 5 6 7 8 9 10 11 12 13 14 15 16 17 18 19 20 21 22 23 24 25
000
FTUS43 KLSX 151700
TAFSTL
TAF
KSTL 151720Z 1518/1624 11012KT P6SM SCT050 BKN110
     FM152200 10010KT P6SM VCSH BKN050
     FM160300 10006KT P6SM OVC025
     FM160900 VRB03KT 5SM BR OVC007
     FM161500 VRB04KT P6SM BKN020=

USA.gov is the U.S. government's official web portal to all federal, state and local government web resources and services.